Time;durP1;ratioP1;P1;durP2;ratioP2;P2;SDS_P1;SDS_P2;PMS_P1;PMS_P2;Temp;Humidity;BMP_temperature;BMP_pressure;BME280_temperature;BME280_humidity;BME280_pressure;Samples;Min_cycle;Max_cycle;Signal;HPM_P1;HPM_P2
2022/12/22 03:26:57;;;;;;;0.80;0.80;;;19.50;56.40;;;;;;4950367;29;20703;-67
2022/12/22 03:29:23;;;;;;;1.08;0.75;;;19.50;56.40;;;;;;4934729;28;20191;-67
2022/12/22 03:31:49;;;;;;;0.70;0.70;;;19.50;56.40;;;;;;4962190;28;20206;-67
2022/12/22 03:34:14;;;;;;;0.90;0.75;;;19.50;56.50;;;;;;4973574;28;20186;-68
2022/12/22 03:36:40;;;;;;;0.80;0.80;;;19.50;56.40;;;;;;4972854;28;20178;-67
2022/12/22 03:39:06;;;;;;;0.90;0.88;;;19.50;56.40;;;;;;4956555;28;20573;-67
2022/12/22 03:47:00;;;;;;;0.80;0.80;;;19.50;56.50;;;;;;4953226;29;20204;-67
2022/12/22 03:49:26;;;;;;;0.73;0.68;;;19.50;56.50;;;;;;4969675;28;20190;-67
2022/12/22 03:51:52;;;;;;;1.10;0.90;;;19.50;56.50;;;;;;4968037;28;20215;-67
2022/12/22 03:54:24;;;;;;;0.80;0.80;;;19.50;56.50;;;;;;4964854;28;20194;-67
2022/12/22 03:56:51;;;;;;;1.13;1.02;;;19.50;56.50;;;;;;4956230;28;20201;-68
2022/12/22 03:59:18;;;;;;;1.17;1.08;;;19.50;56.50;;;;;;4937071;28;20215;-68
2022/12/22 04:01:48;;;;;;;0.98;0.90;;;19.50;56.50;;;;;;4944163;28;20234;-67
2022/12/22 04:04:18;;;;;;;1.67;1.00;;;19.50;56.50;;;;;;4966878;28;20222;-67
2022/12/22 04:06:44;;;;;;;0.88;0.80;;;19.50;56.50;;;;;;4953128;29;20206;-65
2022/12/22 04:09:11;;;;;;;1.30;0.80;;;19.50;56.50;;;;;;4937139;29;20183;-67
2022/12/22 04:14:21;;;;;;;1.20;1.10;;;19.50;56.50;;;;;;4953675;29;20178;-67
2022/12/22 04:16:48;;;;;;;1.08;1.02;;;19.50;56.60;;;;;;4936689;28;20183;-67
2022/12/22 04:19:14;;;;;;;1.02;1.02;;;19.50;56.60;;;;;;4953449;28;20186;-67
2022/12/22 04:21:41;;;;;;;1.08;1.00;;;19.50;56.50;;;;;;4950907;28;20219;-68
2022/12/22 04:24:08;;;;;;;1.13;1.00;;;19.50;56.50;;;;;;4962453;28;20190;-67
2022/12/22 04:26:34;;;;;;;0.93;0.93;;;19.50;56.50;;;;;;4933738;29;20183;-67
2022/12/22 04:28:59;;;;;;;0.95;0.90;;;19.50;56.60;;;;;;4949341;29;20187;-67
2022/12/22 04:31:25;;;;;;;1.02;0.98;;;19.50;56.60;;;;;;4934992;29;20269;-68
2022/12/22 04:33:51;;;;;;;1.00;1.00;;;19.50;56.50;;;;;;4935077;29;20183;-68
2022/12/22 04:36:17;;;;;;;0.90;0.90;;;19.50;56.60;;;;;;4933598;29;20187;-67
2022/12/22 04:38:43;;;;;;;0.90;0.90;;;19.50;56.60;;;;;;4934395;29;20187;-67
2022/12/22 04:44:03;;;;;;;1.08;1.00;;;19.50;56.50;;;;;;4953094;28;20248;-67
2022/12/22 04:46:29;;;;;;;0.98;0.82;;;19.50;56.50;;;;;;4953371;28;20190;-67
2022/12/22 04:48:55;;;;;;;0.93;0.80;;;19.50;56.50;;;;;;4984994;28;20190;-67
2022/12/22 04:51:20;;;;;;;1.30;1.00;;;19.50;56.50;;;;;;4968979;28;20226;-67
2022/12/22 04:53:46;;;;;;;0.90;0.90;;;19.50;56.70;;;;;;4952166;29;20191;-67
2022/12/22 04:56:12;;;;;;;1.13;1.02;;;19.50;56.50;;;;;;4953166;29;20190;-67
2022/12/22 04:58:37;;;;;;;1.67;0.90;;;19.50;56.60;;;;;;4953963;28;20282;-67
2022/12/22 05:01:13;;;;;;;1.20;1.10;;;19.50;56.60;;;;;;4953275;29;20194;-67
2022/12/22 05:03:38;;;;;;;0.95;0.90;;;19.50;56.60;;;;;;4969326;28;20185;-67
2022/12/22 05:06:05;;;;;;;1.25;1.15;;;19.50;56.60;;;;;;4952893;29;20186;-67
2022/12/22 05:08:30;;;;;;;0.82;0.82;;;19.50;56.60;;;;;;4939880;29;20191;-68
2022/12/22 05:10:56;;;;;;;1.08;1.08;;;19.50;56.60;;;;;;4950113;28;20258;-67
2022/12/22 05:13:22;;;;;;;0.90;0.90;;;19.40;56.50;;;;;;4949758;28;20262;-67
2022/12/22 05:15:47;;;;;;;0.88;0.85;;;19.50;56.60;;;;;;4937319;29;20191;-67
2022/12/22 05:18:13;;;;;;;0.90;0.90;;;19.50;56.60;;;;;;4953198;28;20250;-68
2022/12/22 05:20:39;;;;;;;0.70;0.70;;;19.50;56.60;;;;;;4952945;28;20218;-68
2022/12/22 05:23:05;;;;;;;0.80;0.80;;;19.50;56.60;;;;;;4949615;29;20206;-67
2022/12/22 05:25:30;;;;;;;0.93;0.85;;;19.50;56.60;;;;;;4957603;28;20250;-68
2022/12/22 05:27:56;;;;;;;1.00;0.98;;;19.50;56.60;;;;;;4972149;28;20193;-68
2022/12/22 05:30:22;;;;;;;3.30;0.90;;;19.50;56.60;;;;;;4972567;28;20252;-68
2022/12/22 05:32:48;;;;;;;0.85;0.85;;;19.50;56.60;;;;;;4972388;28;20212;-68
2022/12/22 05:35:15;;;;;;;1.67;0.88;;;19.50;56.60;;;;;;4972061;28;20249;-68
2022/12/22 05:37:40;;;;;;;0.68;0.68;;;19.40;56.50;;;;;;4955669;29;20197;-68
2022/12/22 05:40:08;;;;;;;0.70;0.70;;;19.50;56.60;;;;;;4956118;28;20195;-68
2022/12/22 05:42:36;;;;;;;0.80;0.80;;;19.50;56.60;;;;;;4956183;29;20241;-68
2022/12/22 05:45:14;;;;;;;0.80;0.80;;;19.50;56.60;;;;;;4955966;29;20194;-68
2022/12/22 05:47:42;;;;;;;0.70;0.70;;;19.50;56.70;;;;;;4971576;28;20728;-68
2022/12/22 05:50:10;;;;;;;1.63;1.00;;;19.50;56.70;;;;;;4955618;28;20234;-68
2022/12/22 05:52:36;;;;;;;0.85;0.70;;;19.50;56.70;;;;;;4955434;29;20225;-68
2022/12/22 05:55:04;;;;;;;0.75;0.70;;;19.50;56.60;;;;;;4971921;28;20281;-68
2022/12/22 05:57:29;;;;;;;0.98;0.85;;;19.50;56.70;;;;;;4955319;28;20182;-68
2022/12/22 05:59:55;;;;;;;0.95;0.90;;;19.50;56.70;;;;;;4955952;29;20256;-68
2022/12/22 06:02:21;;;;;;;1.08;0.80;;;19.50;56.70;;;;;;4955634;29;20612;-66
2022/12/22 06:04:47;;;;;;;0.80;0.80;;;19.50;56.80;;;;;;4955653;29;20202;-68
2022/12/22 06:07:13;;;;;;;1.90;0.80;;;19.50;56.70;;;;;;4954805;29;20191;-68
2022/12/22 06:09:38;;;;;;;0.80;0.80;;;19.50;56.70;;;;;;4955684;29;20222;-68
2022/12/22 06:12:05;;;;;;;0.88;0.82;;;19.40;56.60;;;;;;4971389;28;20202;-68
2022/12/22 06:14:31;;;;;;;0.70;0.70;;;19.50;56.70;;;;;;4955585;28;20194;-67
2022/12/22 06:16:57;;;;;;;0.98;0.85;;;19.50;56.70;;;;;;4939298;28;20183;-67
2022/12/22 06:19:23;;;;;;;0.77;0.77;;;19.50;56.70;;;;;;4953462;28;20187;-68
2022/12/22 06:21:48;;;;;;;1.60;0.90;;;19.50;56.70;;;;;;4970637;28;20243;-67
2022/12/22 06:24:14;;;;;;;1.13;0.70;;;19.50;56.80;;;;;;4955343;28;20191;-68
2022/12/22 06:26:40;;;;;;;0.80;0.60;;;19.40;56.60;;;;;;4954547;28;20194;-67
2022/12/22 06:29:05;;;;;;;0.80;0.80;;;19.50;56.70;;;;;;4954860;28;20183;-68
2022/12/22 06:31:31;;;;;;;0.82;0.82;;;19.50;56.80;;;;;;4971136;28;20221;-67
2022/12/22 06:33:57;;;;;;;0.70;0.70;;;19.50;56.70;;;;;;4971486;28;20209;-68
2022/12/22 06:36:23;;;;;;;0.65;0.65;;;19.50;56.80;;;;;;4955121;28;20189;-68
2022/12/22 06:38:49;;;;;;;0.82;0.70;;;19.40;56.60;;;;;;4954411;28;20589;-68
2022/12/22 06:43:07;;;;;;;0.70;0.70;;;19.40;56.60;;;;;;4956293;28;20199;-68
2022/12/22 06:44:00;;;;;;;0.68;0.68;;;19.40;56.70;;;;;;4954886;28;20190;-69
2022/12/22 06:46:26;;;;;;;1.00;0.90;;;19.50;56.80;;;;;;4954899;29;20190;-69
2022/12/22 06:48:51;;;;;;;0.98;0.70;;;19.40;56.70;;;;;;4957010;28;20194;-68
2022/12/22 06:51:17;;;;;;;1.00;0.80;;;19.40;56.70;;;;;;4965615;28;20728;-68
2022/12/22 06:53:43;;;;;;;0.70;0.70;;;19.50;56.80;;;;;;4970255;28;20193;-66
2022/12/22 06:56:08;;;;;;;0.95;0.90;;;19.40;56.70;;;;;;4954481;28;20317;-69
2022/12/22 06:58:34;;;;;;;1.90;0.90;;;19.50;57.10;;;;;;4954450;28;20588;-67
2022/12/22 07:01:00;;;;;;;0.75;0.75;;;19.50;57.10;;;;;;4955159;29;20196;-67
2022/12/22 07:03:26;;;;;;;1.08;0.88;;;19.50;57.00;;;;;;4954581;28;20218;-67
2022/12/22 07:05:51;;;;;;;1.23;0.73;;;19.50;57.00;;;;;;4970469;28;20199;-68
2022/12/22 07:08:17;;;;;;;1.70;0.70;;;19.50;57.00;;;;;;4954185;29;20190;-68
2022/12/22 07:10:59;;;;;;;0.95;0.90;;;19.40;56.90;;;;;;4956163;28;20209;-67
2022/12/22 07:13:31;;;;;;;1.08;1.02;;;19.40;56.90;;;;;;4971078;28;20281;-67
2022/12/22 07:15:57;;;;;;;0.75;0.73;;;19.40;56.90;;;;;;4971228;28;20182;-68
2022/12/22 07:18:23;;;;;;;1.00;0.75;;;19.40;56.90;;;;;;4954195;28;20186;-68
2022/12/22 07:20:49;;;;;;;0.90;0.80;;;19.40;56.90;;;;;;4955981;28;20310;-68
2022/12/22 07:23:16;;;;;;;2.55;0.82;;;19.40;56.90;;;;;;4970201;28;20261;-68
2022/12/22 07:25:41;;;;;;;1.40;0.90;;;19.40;56.90;;;;;;4970935;28;20257;-66
2022/12/22 07:28:07;;;;;;;1.42;1.00;;;19.40;56.90;;;;;;4970217;28;20191;-68
2022/12/22 07:30:35;;;;;;;0.70;0.70;;;19.40;56.90;;;;;;4970924;28;20222;-68
2022/12/22 07:33:02;;;;;;;0.90;0.90;;;19.40;56.80;;;;;;4970216;28;20651;-68
2022/12/22 07:35:29;;;;;;;0.82;0.80;;;19.40;56.90;;;;;;4970152;28;20210;-67
2022/12/22 07:37:55;;;;;;;1.02;0.90;;;19.40;56.90;;;;;;4953681;28;20190;-68
2022/12/22 07:40:20;;;;;;;0.90;0.75;;;19.40;56.90;;;;;;4955199;28;20233;-67
2022/12/22 07:42:46;;;;;;;1.17;0.88;;;19.40;56.90;;;;;;4950190;28;20222;-68
2022/12/22 07:45:18;;;;;;;1.35;0.80;;;19.40;56.90;;;;;;4951397;28;20202;-68
2022/12/22 07:47:45;;;;;;;1.20;0.80;;;19.40;56.80;;;;;;4950796;28;20195;-68
2022/12/22 07:50:24;;;;;;;1.70;0.90;;;19.40;56.80;;;;;;4950806;29;20219;-68
2022/12/22 07:52:59;;;;;;;0.93;0.77;;;19.40;56.80;;;;;;4960777;28;20249;-69
2022/12/22 07:55:28;;;;;;;3.00;1.10;;;19.40;56.80;;;;;;4953891;28;20560;-68
2022/12/22 07:57:54;;;;;;;1.35;0.85;;;19.50;56.90;;;;;;4953013;28;20267;-68
2022/12/22 08:00:22;;;;;;;1.35;1.02;;;19.50;56.90;;;;;;4968962;28;20194;-68
2022/12/22 08:02:49;;;;;;;1.20;1.00;;;19.50;56.90;;;;;;4954429;28;20293;-69
2022/12/22 08:05:16;;;;;;;1.45;0.90;;;19.40;56.80;;;;;;4969666;28;20294;-68
2022/12/22 08:07:42;;;;;;;1.85;0.95;;;19.40;56.90;;;;;;4952565;28;20288;-69
2022/12/22 08:10:09;;;;;;;0.90;0.60;;;19.40;56.90;;;;;;4954616;28;20293;-68
2022/12/22 08:12:35;;;;;;;1.50;1.00;;;19.40;56.90;;;;;;4937410;29;20217;-68
2022/12/22 08:15:01;;;;;;;2.70;0.90;;;19.40;56.90;;;;;;4952921;28;20186;-69
2022/12/22 08:17:27;;;;;;;3.53;0.90;;;19.40;56.80;;;;;;4968912;28;20194;-69
2022/12/22 08:19:56;;;;;;;2.17;1.00;;;19.40;56.90;;;;;;4969379;28;20195;-69
2022/12/22 08:22:23;;;;;;;0.80;0.80;;;19.50;56.90;;;;;;4969069;28;20225;-68
2022/12/22 08:24:53;;;;;;;1.15;0.80;;;19.40;56.80;;;;;;4952998;29;20249;-69
2022/12/22 08:27:37;;;;;;;1.10;0.90;;;19.40;56.80;;;;;;4968079;28;20190;-69
2022/12/22 08:30:04;;;;;;;1.27;0.95;;;19.40;56.80;;;;;;4954287;28;20226;-68
2022/12/22 08:32:30;;;;;;;1.52;0.73;;;19.40;56.80;;;;;;4969018;28;20206;-69
2022/12/22 08:34:56;;;;;;;0.68;0.65;;;19.40;56.80;;;;;;4969401;28;20190;-69
2022/12/22 08:37:27;;;;;;;1.25;0.98;;;19.40;56.80;;;;;;4952129;28;20182;-69
2022/12/22 08:40:00;;;;;;;2.15;0.93;;;19.40;56.80;;;;;;4953149;28;20190;-68
2022/12/22 08:42:26;;;;;;;1.90;0.93;;;19.50;57.00;;;;;;4952917;28;20222;-69
2022/12/22 08:44:52;;;;;;;1.02;0.90;;;19.40;56.90;;;;;;4968803;28;20182;-68
2022/12/22 08:47:21;;;;;;;2.00;1.05;;;19.40;57.00;;;;;;4952225;28;20209;-69
2022/12/22 08:49:49;;;;;;;1.20;1.00;;;19.40;56.90;;;;;;4968741;28;20214;-68
2022/12/22 08:52:16;;;;;;;1.65;0.70;;;19.40;56.90;;;;;;4952354;28;20222;-68
2022/12/22 08:54:42;;;;;;;1.38;0.80;;;19.40;56.90;;;;;;4952834;28;20186;-69
2022/12/22 08:57:08;;;;;;;1.95;0.80;;;19.40;56.90;;;;;;4952930;28;20193;-69
2022/12/22 08:59:34;;;;;;;1.52;1.00;;;19.40;56.90;;;;;;4952159;28;20190;-68
2022/12/22 09:02:03;;;;;;;0.90;0.80;;;19.40;56.90;;;;;;4968816;28;20202;-68
2022/12/22 09:04:31;;;;;;;1.70;0.90;;;19.40;56.90;;;;;;4951028;28;20190;-69
2022/12/22 09:06:58;;;;;;;2.10;1.08;;;19.40;56.90;;;;;;4933651;28;20183;-69
2022/12/22 09:09:24;;;;;;;2.35;0.90;;;19.40;56.90;;;;;;4948871;29;20187;-68
2022/12/22 09:11:50;;;;;;;1.08;0.93;;;19.50;57.00;;;;;;4933490;29;20317;-68
2022/12/22 09:14:16;;;;;;;1.55;1.00;;;19.40;56.90;;;;;;4949310;28;20327;-68
2022/12/22 09:16:42;;;;;;;1.83;1.05;;;19.50;57.00;;;;;;4933828;29;20187;-68
2022/12/22 09:19:08;;;;;;;1.13;1.02;;;19.40;56.90;;;;;;4949105;29;20194;-68
2022/12/22 09:21:35;;;;;;;1.02;0.80;;;19.40;56.80;;;;;;4933506;29;20210;-68
2022/12/22 09:24:03;;;;;;;0.88;0.85;;;19.40;56.80;;;;;;4944276;29;20647;-69
2022/12/22 09:26:29;;;;;;;2.58;1.20;;;19.40;57.40;;;;;;4968413;28;20219;-68
2022/12/22 09:28:55;;;;;;;1.17;0.85;;;19.40;56.80;;;;;;4968194;28;20222;-68
2022/12/22 09:31:24;;;;;;;2.78;1.05;;;19.40;56.80;;;;;;4952144;28;20293;-68
2022/12/22 09:33:50;;;;;;;1.00;0.80;;;19.40;56.80;;;;;;4952824;29;20221;-68
2022/12/22 09:36:21;;;;;;;1.33;1.00;;;19.40;56.90;;;;;;4968928;28;20538;-68
2022/12/22 09:38:47;;;;;;;2.17;1.20;;;19.50;57.00;;;;;;4968096;28;20627;-69
2022/12/22 09:41:30;;;;;;;1.40;0.88;;;19.40;56.90;;;;;;4969146;28;20222;-68
2022/12/22 09:44:02;;;;;;;1.13;0.90;;;19.40;56.90;;;;;;4937011;29;20194;-68
2022/12/22 09:46:33;;;;;;;1.48;1.15;;;19.40;56.90;;;;;;4968913;28;20187;-68
2022/12/22 09:48:58;;;;;;;1.90;1.13;;;19.50;57.00;;;;;;4968634;28;20194;-68
2022/12/22 09:51:25;;;;;;;1.52;1.00;;;19.50;57.00;;;;;;4968477;28;20214;-69
2022/12/22 09:54:00;;;;;;;1.23;0.88;;;19.40;56.90;;;;;;4952376;29;20193;-68
2022/12/22 09:56:28;;;;;;;1.67;0.90;;;19.40;56.90;;;;;;4952613;29;20178;-69
2022/12/22 09:58:54;;;;;;;1.30;0.70;;;19.40;56.90;;;;;;4952685;29;20187;-69
2022/12/22 10:01:48;;;;;;;1.13;0.88;;;19.40;56.90;;;;;;4968787;28;20687;-69
2022/12/22 10:04:31;;;;;;;1.45;0.95;;;19.40;56.90;;;;;;4971373;28;20253;-68
2022/12/22 10:07:06;;;;;;;2.33;1.10;;;19.40;56.90;;;;;;4956196;29;20205;-68
2022/12/22 10:09:35;;;;;;;1.23;1.02;;;19.40;56.90;;;;;;4956609;28;20182;-68
2022/12/22 10:12:04;;;;;;;1.52;0.85;;;19.40;56.90;;;;;;4972066;28;20221;-68
2022/12/22 10:14:45;;;;;;;0.93;0.70;;;19.40;56.90;;;;;;4956312;29;20208;-68
2022/12/22 10:17:34;;;;;;;1.88;0.90;;;19.40;56.90;;;;;;4956389;29;20190;-68
2022/12/22 10:20:20;;;;;;;1.10;0.73;;;19.40;56.90;;;;;;4955882;29;20190;-69
2022/12/22 10:23:01;;;;;;;1.42;0.80;;;19.40;56.90;;;;;;4970785;28;20336;-69
2022/12/22 10:25:38;;;;;;;0.65;0.65;;;19.40;56.90;;;;;;4972109;28;20197;-69
2022/12/22 10:28:16;;;;;;;1.80;1.17;;;19.40;56.90;;;;;;4939300;29;20194;-68
2022/12/22 10:30:42;;;;;;;1.63;1.10;;;19.50;57.00;;;;;;4971770;28;20207;-69
2022/12/22 10:33:17;;;;;;;1.38;0.90;;;19.40;56.90;;;;;;4971575;28;20203;-69
2022/12/22 10:35:56;;;;;;;1.25;1.00;;;19.40;56.90;;;;;;4955453;29;20237;-69
2022/12/22 10:38:33;;;;;;;1.23;0.70;;;19.40;56.90;;;;;;4956119;28;20182;-69
2022/12/22 10:41:12;;;;;;;1.42;0.70;;;19.40;56.90;;;;;;4957233;28;20178;-66
2022/12/22 10:44:05;;;;;;;2.38;1.05;;;19.40;56.90;;;;;;4972358;28;20249;-69
2022/12/22 10:46:44;;;;;;;1.65;0.98;;;19.40;57.00;;;;;;4955784;29;20182;-68
2022/12/22 10:49:33;;;;;;;1.17;0.80;;;19.40;57.00;;;;;;4970398;28;20196;-69
2022/12/22 10:52:27;;;;;;;1.48;0.90;;;19.40;56.90;;;;;;4968195;28;20218;-69
2022/12/22 10:55:17;;;;;;;3.20;1.25;;;19.50;57.10;;;;;;4954673;28;20583;-69
2022/12/22 10:57:43;;;;;;;1.30;0.90;;;19.40;56.90;;;;;;4937863;29;20213;-69
2022/12/22 11:00:28;;;;;;;2.88;0.80;;;19.40;57.00;;;;;;4970472;28;20607;-69
2022/12/22 11:02:57;;;;;;;1.15;0.95;;;19.40;56.90;;;;;;4954107;29;20301;-69
2022/12/22 11:05:23;;;;;;;2.65;0.90;;;19.40;56.90;;;;;;4954615;29;20193;-70
2022/12/22 11:07:49;;;;;;;2.20;1.02;;;19.40;57.00;;;;;;4952869;29;20183;-69
2022/12/22 11:10:30;;;;;;;1.52;0.75;;;19.40;57.00;;;;;;4955364;28;20232;-68
2022/12/22 11:13:27;;;;;;;2.42;1.10;;;19.40;57.00;;;;;;4967504;28;20236;-68
2022/12/22 11:16:26;;;;;;;1.17;0.82;;;19.40;57.00;;;;;;4955405;28;20258;-68
2022/12/22 11:19:00;;;;;;;1.23;0.80;;;19.40;57.00;;;;;;4959004;28;20182;-67
2022/12/22 11:22:05;;;;;;;1.58;0.90;;;19.40;56.90;;;;;;4970562;28;20209;-67
2022/12/22 11:25:25;;;;;;;1.63;0.80;;;19.40;57.00;;;;;;4954893;29;20179;-68
2022/12/22 11:28:22;;;;;;;1.52;1.10;;;19.40;57.00;;;;;;4896003;29;20204;-67
2022/12/22 11:31:01;;;;;;;2.25;0.90;;;19.40;57.00;;;;;;4951697;28;20329;-68
2022/12/22 11:33:44;;;;;;;1.13;0.70;;;19.40;57.00;;;;;;4970641;28;20214;-68
2022/12/22 11:36:35;;;;;;;2.25;1.00;;;19.40;57.00;;;;;;4970634;28;20186;-68
2022/12/22 11:39:10;;;;;;;1.83;1.00;;;19.40;57.00;;;;;;4959272;28;20225;-68
2022/12/22 11:42:09;;;;;;;1.02;0.93;;;19.40;56.90;;;;;;4969695;28;20217;-68
2022/12/22 11:45:25;;;;;;;2.15;1.00;;;19.50;57.00;;;;;;4955342;28;20273;-67
2022/12/22 11:48:36;;;;;;;1.55;0.80;;;19.50;57.00;;;;;;4905352;29;20210;-68
2022/12/22 11:51:25;;;;;;;1.58;1.02;;;19.40;56.90;;;;;;4934849;28;20225;-69
2022/12/22 11:54:31;;;;;;;1.65;0.90;;;19.40;57.00;;;;;;4951347;28;20195;-69
2022/12/22 11:57:48;;;;;;;1.17;0.80;;;19.50;57.10;;;;;;4969968;28;20190;-68
2022/12/22 12:00:17;;;;;;;1.65;0.98;;;19.40;57.10;;;;;;4930259;28;20221;-69
2022/12/22 12:03:27;;;;;;;1.02;0.73;;;19.50;57.10;;;;;;4955176;28;20586;-69
2022/12/22 12:06:32;;;;;;;1.67;0.80;;;19.40;57.00;;;;;;4930778;29;20335;-67
2022/12/22 12:09:20;;;;;;;1.10;0.80;;;19.40;57.00;;;;;;4954646;28;20205;-68
2022/12/22 12:12:27;;;;;;;1.02;0.80;;;19.40;57.00;;;;;;4969942;28;20249;-67
2022/12/22 12:15:37;;;;;;;2.47;0.90;;;19.40;57.00;;;;;;4969791;28;20187;-68
2022/12/22 12:18:39;;;;;;;1.05;0.90;;;19.50;57.10;;;;;;4944114;29;20206;-68
2022/12/22 12:21:40;;;;;;;1.42;0.65;;;19.50;57.40;;;;;;4937300;29;20241;-67
2022/12/22 12:24:45;;;;;;;2.30;0.90;;;19.40;57.00;;;;;;4953880;28;20194;-67
2022/12/22 12:27:35;;;;;;;1.92;0.70;;;19.40;57.10;;;;;;4969124;28;20193;-67
2022/12/22 12:30:17;;;;;;;1.42;0.70;;;19.50;57.10;;;;;;4934513;29;20200;-67
2022/12/22 12:33:17;;;;;;;1.13;0.70;;;19.50;57.10;;;;;;4934713;28;20252;-67
2022/12/22 12:36:23;;;;;;;1.48;0.82;;;19.50;57.10;;;;;;4918422;29;20196;-67
2022/12/22 12:39:16;;;;;;;1.40;1.05;;;19.50;57.10;;;;;;4934983;29;20657;-67
2022/12/22 12:42:13;;;;;;;2.33;1.10;;;19.40;57.00;;;;;;4950522;29;20214;-67
2022/12/22 12:44:39;;;;;;;1.88;0.90;;;19.50;57.10;;;;;;4937749;29;20194;-67
2022/12/22 12:47:28;;;;;;;1.40;0.85;;;19.40;57.10;;;;;;4969610;28;20186;-67
2022/12/22 12:50:05;;;;;;;1.45;0.80;;;19.40;57.00;;;;;;4968890;28;20285;-67
2022/12/22 12:52:42;;;;;;;2.67;0.90;;;19.40;57.00;;;;;;4936655;29;20209;-67
2022/12/22 12:55:29;;;;;;;2.85;1.08;;;19.40;57.00;;;;;;4934189;28;20191;-67
2022/12/22 12:57:57;;;;;;;2.17;0.90;;;19.40;57.00;;;;;;4959026;28;20194;-67
2022/12/22 13:00:42;;;;;;;0.93;0.77;;;19.40;57.10;;;;;;4968950;28;20245;-67
2022/12/22 13:03:09;;;;;;;2.42;1.10;;;19.40;57.00;;;;;;4968775;28;20210;-67
2022/12/22 13:05:56;;;;;;;1.52;0.90;;;19.40;57.00;;;;;;4969127;28;20190;-67
2022/12/22 13:09:01;;;;;;;1.33;0.88;;;19.50;57.20;;;;;;4952551;29;20187;-67
2022/12/22 13:11:35;;;;;;;3.67;1.23;;;19.40;57.00;;;;;;4936489;29;20222;-67
2022/12/22 13:14:02;;;;;;;1.88;0.90;;;19.40;57.00;;;;;;4953444;29;20202;-68
2022/12/22 13:16:38;;;;;;;3.10;1.08;;;19.50;57.10;;;;;;4952887;29;20186;-67
2022/12/22 13:19:21;;;;;;;2.25;1.13;;;19.40;57.10;;;;;;4952205;28;20217;-67
2022/12/22 13:21:47;;;;;;;1.70;1.02;;;19.40;57.00;;;;;;4969140;28;20277;-67
2022/12/22 13:24:21;;;;;;;1.67;1.00;;;19.40;57.00;;;;;;4968645;28;20579;-68
2022/12/22 13:26:50;;;;;;;1.60;0.80;;;19.40;57.00;;;;;;4936459;28;20245;-67
2022/12/22 13:29:40;;;;;;;1.90;0.98;;;19.40;57.00;;;;;;4951917;28;20745;-67
2022/12/22 13:32:32;;;;;;;2.25;1.08;;;19.50;57.10;;;;;;4961685;28;20218;-67
2022/12/22 13:35:37;;;;;;;0.98;0.82;;;19.40;57.00;;;;;;4951736;28;20245;-67
2022/12/22 13:38:03;;;;;;;2.25;1.08;;;19.40;57.00;;;;;;4971355;28;20193;-67
2022/12/22 13:40:41;;;;;;;2.50;1.20;;;19.40;57.00;;;;;;4956367;28;20187;-67
2022/12/22 13:43:15;;;;;;;0.90;0.80;;;19.50;57.10;;;;;;4972263;28;20247;-67
2022/12/22 13:45:53;;;;;;;1.88;0.73;;;19.40;57.00;;;;;;4956264;29;20237;-67
2022/12/22 13:48:35;;;;;;;2.45;1.05;;;19.50;57.10;;;;;;4955659;28;20206;-67
2022/12/22 13:51:06;;;;;;;3.45;1.15;;;19.40;57.10;;;;;;4956951;28;20210;-67
2022/12/22 13:53:40;;;;;;;1.58;0.90;;;19.40;57.00;;;;;;4971209;28;20210;-67
2022/12/22 13:56:20;;;;;;;1.58;1.00;;;19.40;57.00;;;;;;4955981;28;20186;-68
2022/12/22 13:58:56;;;;;;;1.58;1.08;;;19.50;57.10;;;;;;4939173;28;20186;-68
2022/12/22 14:01:22;;;;;;;2.97;0.90;;;19.50;57.10;;;;;;4955522;28;20193;-68
2022/12/22 14:04:02;;;;;;;2.40;1.02;;;19.40;57.00;;;;;;4954715;29;20199;-68
2022/12/22 14:06:31;;;;;;;1.95;1.10;;;19.40;57.10;;;;;;4955731;28;20658;-68
2022/12/22 14:09:16;;;;;;;1.33;1.05;;;19.40;57.00;;;;;;4954058;29;20678;-68
2022/12/22 14:11:47;;;;;;;2.50;1.15;;;19.40;57.10;;;;;;4955103;28;20296;-68
2022/12/22 14:14:22;;;;;;;3.08;0.90;;;19.40;57.00;;;;;;4955615;28;20186;-68
2022/12/22 14:16:52;;;;;;;1.95;1.10;;;19.40;57.10;;;;;;4955699;29;20190;-68
2022/12/22 14:19:21;;;;;;;2.03;1.00;;;19.40;57.00;;;;;;4953922;29;20194;-68
2022/12/22 14:22:12;;;;;;;1.70;0.93;;;19.40;57.10;;;;;;4955603;28;20258;-68
2022/12/22 14:24:49;;;;;;;1.67;1.10;;;19.40;57.00;;;;;;4955320;29;20198;-67
2022/12/22 14:27:46;;;;;;;3.00;1.30;;;19.40;57.00;;;;;;4954565;29;20970;-67
2022/12/22 14:30:23;;;;;;;3.38;1.05;;;19.50;57.10;;;;;;4971031;28;20206;-68
2022/12/22 14:32:53;;;;;;;2.03;1.30;;;19.40;57.40;;;;;;4970442;28;20210;-68
2022/12/22 14:35:19;;;;;;;1.55;0.90;;;19.40;57.00;;;;;;4955316;29;20194;-68
2022/12/22 14:38:08;;;;;;;1.83;0.98;;;19.50;57.10;;;;;;4939024;29;20189;-66
2022/12/22 14:40:41;;;;;;;1.63;1.10;;;19.40;57.00;;;;;;4939199;29;20221;-68
2022/12/22 14:43:30;;;;;;;1.65;1.10;;;19.40;57.00;;;;;;4938848;28;20218;-67
2022/12/22 14:46:07;;;;;;;1.40;1.10;;;19.50;57.10;;;;;;4961397;28;20277;-67
2022/12/22 14:48:43;;;;;;;1.85;1.00;;;19.40;57.00;;;;;;4966417;28;20197;-67
2022/12/22 14:51:09;;;;;;;1.80;0.82;;;19.40;57.10;;;;;;4956087;28;20221;-68
2022/12/22 14:53:50;;;;;;;2.60;0.90;;;19.40;57.00;;;;;;4954723;28;20597;-67
2022/12/22 14:56:17;;;;;;;2.03;1.00;;;19.40;57.00;;;;;;4955083;28;20190;-67
2022/12/22 14:58:45;;;;;;;2.22;1.02;;;19.40;57.00;;;;;;4954323;28;20250;-68
2022/12/22 15:01:18;;;;;;;1.48;1.00;;;19.40;57.10;;;;;;4954542;29;20277;-67
2022/12/22 15:04:05;;;;;;;1.77;0.90;;;19.40;57.00;;;;;;4956414;28;20206;-68
2022/12/22 15:06:37;;;;;;;1.88;1.15;;;19.40;57.00;;;;;;4954660;28;20187;-67
2022/12/22 15:09:03;;;;;;;1.65;1.25;;;19.40;57.00;;;;;;4955453;28;20222;-68
2022/12/22 15:11:30;;;;;;;3.15;1.48;;;19.40;57.00;;;;;;4970774;28;20214;-67
2022/12/22 15:13:56;;;;;;;1.52;1.00;;;19.40;57.00;;;;;;4955773;28;20186;-67
2022/12/22 15:16:22;;;;;;;2.03;0.98;;;19.40;57.00;;;;;;4954856;29;20186;-67
2022/12/22 15:18:51;;;;;;;1.67;0.88;;;19.40;57.00;;;;;;4954526;28;20190;-67
2022/12/22 15:21:19;;;;;;;1.90;1.02;;;19.40;57.00;;;;;;4955917;28;20273;-67
2022/12/22 15:23:45;;;;;;;2.25;1.23;;;19.40;57.00;;;;;;4954748;28;20207;-66
2022/12/22 15:26:12;;;;;;;1.75;1.23;;;19.40;57.00;;;;;;4954858;29;20654;-67
2022/12/22 15:28:38;;;;;;;1.52;0.80;;;19.40;57.00;;;;;;4954515;29;20659;-67
2022/12/22 15:31:13;;;;;;;1.50;1.02;;;19.40;57.00;;;;;;4954579;29;20678;-67
2022/12/22 15:33:40;;;;;;;1.70;0.90;;;19.40;57.00;;;;;;4954586;29;20237;-67
2022/12/22 15:36:10;;;;;;;1.17;0.75;;;19.40;57.10;;;;;;4954726;29;20194;-67
2022/12/22 15:38:37;;;;;;;1.50;1.00;;;19.30;57.00;;;;;;4954168;28;20246;-67
2022/12/22 15:41:03;;;;;;;2.75;1.38;;;19.40;57.00;;;;;;4954644;29;20233;-67
2022/12/22 15:43:28;;;;;;;1.98;1.10;;;19.40;57.60;;;;;;4954488;29;20222;-67
2022/12/22 15:45:55;;;;;;;2.70;1.30;;;19.30;57.00;;;;;;4956274;28;20205;-67
2022/12/22 15:48:35;;;;;;;2.95;1.38;;;19.40;57.00;;;;;;4989166;28;20185;-67
2022/12/22 15:51:05;;;;;;;1.55;0.85;;;19.40;57.00;;;;;;4973842;28;20206;-67
2022/12/22 15:53:33;;;;;;;1.98;1.17;;;19.40;57.00;;;;;;4973472;28;20202;-67
2022/12/22 15:56:00;;;;;;;1.95;1.10;;;19.30;57.00;;;;;;4973473;28;20273;-67
2022/12/22 15:58:31;;;;;;;3.25;1.30;;;19.30;57.00;;;;;;4972820;28;20189;-67
2022/12/22 16:00:57;;;;;;;1.42;1.00;;;19.30;57.00;;;;;;4973952;28;20177;-68
2022/12/22 16:03:23;;;;;;;1.90;1.00;;;19.30;57.00;;;;;;4974572;28;20207;-67
2022/12/22 16:05:49;;;;;;;2.00;0.95;;;19.30;57.00;;;;;;4989770;28;20189;-67
2022/12/22 16:08:26;;;;;;;1.75;1.00;;;19.30;57.00;;;;;;4956957;28;20193;-67
2022/12/22 16:10:51;;;;;;;1.90;1.00;;;19.30;57.00;;;;;;4957097;28;20213;-67
2022/12/22 16:13:23;;;;;;;2.17;1.20;;;19.30;57.00;;;;;;4973326;28;20213;-67
2022/12/22 16:15:49;;;;;;;2.13;1.27;;;19.30;57.00;;;;;;4963061;28;20197;-66
2022/12/22 16:18:16;;;;;;;2.38;1.20;;;19.30;57.00;;;;;;4969602;28;20229;-67
2022/12/22 16:20:43;;;;;;;3.20;1.20;;;19.40;57.00;;;;;;4953671;28;20571;-67
2022/12/22 16:23:16;;;;;;;3.80;1.35;;;19.30;57.00;;;;;;4969817;28;20206;-68
2022/12/22 16:25:44;;;;;;;2.50;1.30;;;19.30;57.00;;;;;;4969795;28;20178;-67
2022/12/22 16:28:23;;;;;;;2.05;0.95;;;19.30;57.00;;;;;;4968931;28;20241;-67
2022/12/22 16:30:50;;;;;;;2.45;1.35;;;19.30;57.00;;;;;;4953715;28;20210;-67
2022/12/22 16:33:17;;;;;;;1.70;1.00;;;19.30;57.00;;;;;;4953440;28;20224;-67
2022/12/22 16:35:43;;;;;;;2.80;1.30;;;19.30;57.00;;;;;;4953474;29;20186;-67
2022/12/22 16:38:10;;;;;;;2.67;1.20;;;19.30;57.00;;;;;;4968610;28;20253;-67
2022/12/22 16:40:43;;;;;;;2.55;1.10;;;19.30;57.00;;;;;;4969530;28;20202;-67
2022/12/22 16:43:28;;;;;;;1.63;0.85;;;19.30;57.00;;;;;;5011479;22;20322;-68
2022/12/22 16:45:56;;;;;;;2.50;1.50;;;19.30;57.00;;;;;;5028161;28;20187;-67
2022/12/22 16:48:51;;;;;;;1.95;0.80;;;19.30;57.00;;;;;;4995106;28;20216;-68
2022/12/22 16:51:25;;;;;;;1.77;1.25;;;19.30;57.00;;;;;;4991628;28;20791;-68
2022/12/22 16:53:51;;;;;;;2.35;1.15;;;19.30;57.00;;;;;;5002492;28;20298;-68
2022/12/22 16:56:22;;;;;;;2.15;1.10;;;19.30;57.00;;;;;;5000761;28;20187;-67